EST,Max TemperatureF,Mean TemperatureF,Min TemperatureF,Max Dew PointF,MeanDew PointF,Min DewpointF,Max Humidity, Mean Humidity, Min Humidity, Max Sea Level PressureIn, Mean Sea Level PressureIn, Min Sea Level PressureIn, Max VisibilityMiles, Mean VisibilityMiles, Min VisibilityMiles, Max Wind SpeedMPH, Mean Wind SpeedMPH, Max Gust SpeedMPH,PrecipitationIn, CloudCover, Events, WindDirDegrees
2014-1-1,36,28,20,21,18,14,81,66,51,30.32,30.23,30.08,10,10,10,18,7,23,0.00,4,,221
2014-1-2,27,18,9,21,18,5,96,86,75,30.05,29.73,29.58,10,3,0,22,5,27,0.07,7,Fog-Snow,45
2014-1-3,9,5,1,5,-2,-7,88,74,60,30.43,30.06,29.70,10,4,1,26,14,33,T,6,Snow,297
2014-1-4,34,19,4,7,1,-3,86,55,24,30.36,30.26,30.17,10,10,10,18,9,25,0.00,0,,203
2014-1-5,45,36,26,40,29,4,100,64,28,30.15,29.87,29.51,10,7,0,26,12,36,T,5,Fog,172
2014-1-6,43,16,-11,39,9,-19,96,80,64,30.04,29.67,29.41,10,3,0,32,21,48,0.06,8,Fog-Rain-Snow,264
2014-1-7,-1,-7,-14,-9,-17,-22,78,71,63,30.40,30.13,29.88,10,4,1,31,19,42,T,7,Snow,265
2014-1-8,20,10,-1,18,8,-8,91,74,56,30.52,30.40,30.30,10,6,2,23,9,29,0.01,7,Snow,240
2014-1-9,31,23,15,22,17,13,92,78,63,30.58,30.45,30.33,10,8,0,14,6,18,0.02,7,Fog-Snow,196
2014-1-10,40,32,24,39,29,20,100,88,75,30.41,30.23,29.97,10,5,0,17,8,21,0.06,7,Fog-Rain-Snow,178
2014-1-11,50,42,34,47,43,28,100,88,75,29.97,29.60,29.37,10,7,0,30,15,41,0.35,8,Fog-Rain,210
2014-1-12,34,32,29,30,27,25,92,82,72,30.07,29.86,29.58,10,8,3,30,14,43,0.01,7,Rain-Snow,260
2014-1-13,54,44,34,43,31,18,89,61,32,30.03,29.88,29.73,10,10,10,23,10,30,0.04,4,Rain,202
2014-1-14,45,38,31,43,37,27,100,88,75,29.85,29.73,29.67,10,7,0,17,9,25,0.05,7,Fog-Rain,244
2014-1-15,36,29,22,30,22,14,92,75,58,29.98,29.90,29.81,10,10,4,22,10,28,T,8,Snow,263
2014-1-16,28,22,16,15,12,9,74,65,55,29.99,29.90,29.78,10,10,9,15,7,19,T,6,,245
2014-1-17,34,28,22,28,23,13,81,66,50,29.88,29.81,29.74,10,7,0,20,8,28,0.06,7,Fog-Snow-Thunderstorm,219
2014-1-18,22,15,7,18,7,0,84,79,73,29.97,29.86,29.78,10,5,1,24,14,32,T,7,Snow,264
2014-1-19,30,21,11,19,15,7,92,78,63,29.86,29.71,29.60,10,5,1,36,18,47,T,6,Snow,235
2014-1-20,32,27,22,25,21,18,88,76,63,29.88,29.73,29.56,10,9,5,33,19,46,T,6,Snow,282
2014-1-21,22,10,-2,17,9,-6,92,80,68,29.97,29.80,29.71,10,4,0,18,9,22,0.07,7,Fog-Snow,18
2014-1-22,3,-2,-8,-6,-8,-12,83,73,62,30.05,29.95,29.81,10,8,2,18,10,21,T,6,Snow,290
2014-1-23,9,5,0,4,-1,-4,95,82,69,30.39,30.08,29.86,10,2,0,23,13,30,T,8,Fog-Snow,262
2014-1-24,13,5,-4,-2,-6,-10,87,63,38,30.46,30.25,29.87,10,5,1,25,14,31,T,6,Snow,245
2014-1-25,21,15,9,18,12,-11,88,61,33,29.83,29.43,29.25,10,2,0,31,17,40,0.01,8,Fog-Snow,251
2014-1-26,33,19,4,23,6,-3,86,74,62,29.80,29.67,29.54,10,5,0,30,14,40,0.03,7,Fog-Snow,233
2014-1-27,40,20,-1,31,7,-11,92,75,58,30.18,29.80,29.46,10,5,0,36,18,48,0.04,6,Fog-Rain-Snow,273
2014-1-28,2,-4,-10,-9,-12,-15,83,66,49,30.41,30.24,30.02,10,6,1,24,8,30,T,7,Snow,264
2014-1-29,10,2,-6,-6,-9,-15,65,58,50,30.33,30.25,30.21,10,10,9,25,14,33,0.00,0,,260
2014-1-30,27,15,2,3,-1,-6,68,50,32,30.36,30.18,29.92,10,10,10,18,9,23,0.00,0,,187
2014-1-31,34,27,20,20,13,0,63,46,28,30.19,30.10,29.92,10,10,10,25,10,33,0.00,6,,249